Time;durP1;ratioP1;P1;durP2;ratioP2;P2;SDS_P1;SDS_P2;PMS_P1;PMS_P2;Temp;Humidity;BMP_temperature;BMP_pressure;BME280_temperature;BME280_humidity;BME280_pressure;Samples;Min_cycle;Max_cycle;Signal;HPM_P1;HPM_P2
2022/05/05 00:02:17;;;;;;;11.07;7.40;;;;;;;;;;5053928;28;20228;-74
2022/05/05 00:04:43;;;;;;;11.40;6.18;;;;;;;;;;5053570;28;20421;-73
2022/05/05 00:07:09;;;;;;;15.55;5.82;;;;;;;;;;5054060;28;20606;-74
2022/05/05 00:09:36;;;;;;;10.40;6.47;;;;;;;;;;5054076;28;20178;-74
2022/05/05 04:24:23;;;;;;;11.73;8.07;;;;;;;;;;4570707;29;1987561;-74
2022/05/05 04:26:49;;;;;;;8.80;6.90;;;;;;;;;;4519506;30;1074748;-74
2022/05/05 04:29:15;;;;;;;16.10;7.35;;;;;;;;;;4511339;31;20220;-74
2022/05/05 04:31:43;;;;;;;16.95;8.43;;;;;;;;;;4448556;32;20226;-74
2022/05/05 04:34:09;;;;;;;17.55;7.90;;;;;;;;;;4433213;32;20286;-75
2022/05/05 04:36:36;;;;;;;11.40;9.10;;;;;;;;;;4452095;31;20208;-73
2022/05/05 04:39:03;;;;;;;10.50;7.85;;;;;;;;;;4450638;32;20201;-75
2022/05/05 04:41:29;;;;;;;16.95;8.77;;;;;;;;;;4436501;32;20284;-74
2022/05/05 04:43:55;;;;;;;11.20;7.75;;;;;;;;;;4460525;32;20371;-74
2022/05/05 04:46:21;;;;;;;13.55;7.95;;;;;;;;;;4461061;32;20221;-73
2022/05/05 04:48:48;;;;;;;10.45;8.13;;;;;;;;;;4461067;32;20225;-73
2022/05/05 04:51:14;;;;;;;14.50;9.10;;;;;;;;;;4475378;32;20202;-74
2022/05/05 04:53:41;;;;;;;13.70;8.90;;;;;;;;;;4451359;32;20228;-74
2022/05/05 04:56:10;;;;;;;18.75;9.27;;;;;;;;;;4451617;32;20204;-73
2022/05/05 04:58:36;;;;;;;14.82;8.80;;;;;;;;;;4461705;31;20210;-75
2022/05/05 05:01:02;;;;;;;19.67;9.57;;;;;;;;;;4436192;32;20241;-75
2022/05/05 05:03:39;;;;;;;22.13;8.77;;;;;;;;;;4435829;32;20209;-74
2022/05/05 05:06:06;;;;;;;21.90;10.05;;;;;;;;;;4436016;32;20227;-74
2022/05/05 05:08:33;;;;;;;15.82;10.32;;;;;;;;;;4449893;32;20262;-74
2022/05/05 05:10:59;;;;;;;17.52;11.15;;;;;;;;;;4451636;32;20192;-74
2022/05/05 05:13:25;;;;;;;16.67;9.25;;;;;;;;;;4451160;32;20220;-73
2022/05/05 05:15:51;;;;;;;15.00;10.27;;;;;;;;;;4448210;32;20673;-73
2022/05/05 05:18:17;;;;;;;18.50;10.53;;;;;;;;;;4453438;32;20543;-72
2022/05/05 05:20:43;;;;;;;16.00;10.53;;;;;;;;;;4425637;32;20452;-73
2022/05/05 05:23:09;;;;;;;17.17;10.80;;;;;;;;;;4450833;31;20449;-72
2022/05/05 05:25:35;;;;;;;20.83;11.03;;;;;;;;;;4473128;31;20226;-72
2022/05/05 05:28:01;;;;;;;22.77;10.15;;;;;;;;;;4602315;30;20464;-73
2022/05/05 05:30:28;;;;;;;17.08;10.80;;;;;;;;;;4670238;30;20259;-72
2022/05/05 05:32:54;;;;;;;15.68;12.20;;;;;;;;;;4667674;30;20274;-72
2022/05/05 05:35:20;;;;;;;17.08;11.45;;;;;;;;;;4666758;30;20212;-73
2022/05/05 05:37:46;;;;;;;20.27;10.97;;;;;;;;;;4667639;30;20689;-73
2022/05/05 05:40:12;;;;;;;18.93;11.60;;;;;;;;;;4667694;30;20434;-72
2022/05/05 05:42:38;;;;;;;19.50;11.60;;;;;;;;;;4667548;30;20534;-73
2022/05/05 05:45:07;;;;;;;20.70;12.27;;;;;;;;;;4667286;30;20486;-72
2022/05/05 05:47:33;;;;;;;20.80;13.25;;;;;;;;;;4667661;30;20444;-73
2022/05/05 05:49:59;;;;;;;20.30;14.20;;;;;;;;;;4667974;30;20200;-73
2022/05/05 05:52:25;;;;;;;25.80;12.83;;;;;;;;;;4667697;30;20420;-72
2022/05/05 05:54:51;;;;;;;29.90;13.37;;;;;;;;;;4667109;30;20818;-72
2022/05/05 05:57:17;;;;;;;22.53;12.70;;;;;;;;;;4667425;30;20446;-72
2022/05/05 05:59:43;;;;;;;21.73;12.30;;;;;;;;;;4667549;30;20514;-72
2022/05/05 06:04:54;;;;;;;24.30;13.00;;;;;;;;;;4666847;30;20518;-73
2022/05/05 06:07:20;;;;;;;23.33;13.00;;;;;;;;;;4667183;30;20450;-73
2022/05/05 06:09:46;;;;;;;25.13;13.70;;;;;;;;;;4667117;30;20431;-73
2022/05/05 06:12:12;;;;;;;23.53;14.00;;;;;;;;;;4667192;30;20430;-72
2022/05/05 06:14:38;;;;;;;24.80;14.90;;;;;;;;;;4666722;30;20455;-73
2022/05/05 06:17:05;;;;;;;20.13;13.40;;;;;;;;;;4665727;30;20451;-72
2022/05/05 06:19:31;;;;;;;22.30;13.70;;;;;;;;;;4666987;30;20520;-72
2022/05/05 06:21:57;;;;;;;24.37;15.03;;;;;;;;;;4666960;30;21005;-74
2022/05/05 06:24:23;;;;;;;31.43;15.60;;;;;;;;;;4632832;30;1064045;-72
2022/05/05 06:26:49;;;;;;;25.77;14.80;;;;;;;;;;4673110;30;20239;-72
2022/05/05 06:29:15;;;;;;;28.17;15.87;;;;;;;;;;4715351;30;20458;-73
2022/05/05 06:31:41;;;;;;;25.57;14.90;;;;;;;;;;4757946;30;20430;-73
2022/05/05 06:34:09;;;;;;;25.10;15.67;;;;;;;;;;4762817;30;20958;-75
2022/05/05 06:36:35;;;;;;;24.63;14.40;;;;;;;;;;4771184;30;20397;-74
2022/05/05 06:39:01;;;;;;;21.10;14.37;;;;;;;;;;4759359;30;20434;-75
2022/05/05 06:41:28;;;;;;;32.93;18.10;;;;;;;;;;4753673;30;20599;-74
2022/05/05 06:43:54;;;;;;;22.50;14.23;;;;;;;;;;4766624;30;20429;-72
2022/05/05 06:46:20;;;;;;;25.00;15.23;;;;;;;;;;4753512;30;20430;-72
2022/05/05 06:48:46;;;;;;;25.10;14.63;;;;;;;;;;4753525;30;20871;-72
2022/05/05 06:51:12;;;;;;;23.30;14.50;;;;;;;;;;4751991;30;20853;-72
2022/05/05 06:53:38;;;;;;;26.53;14.57;;;;;;;;;;4766953;30;20501;-74
2022/05/05 06:56:05;;;;;;;23.60;14.63;;;;;;;;;;4753408;30;20439;-75
2022/05/05 06:58:31;;;;;;;24.43;14.83;;;;;;;;;;4753419;30;20435;-75
2022/05/05 07:03:41;;;;;;;28.13;15.00;;;;;;;;;;4752817;30;20878;-74
2022/05/05 07:06:10;;;;;;;26.10;13.70;;;;;;;;;;4753124;30;20489;-72
2022/05/05 07:11:20;;;;;;;24.47;13.97;;;;;;;;;;4752252;30;20396;-73
2022/05/05 07:13:46;;;;;;;28.50;15.10;;;;;;;;;;4766048;30;20462;-74
2022/05/05 07:16:12;;;;;;;21.90;13.33;;;;;;;;;;4752364;30;20408;-73
2022/05/05 07:18:38;;;;;;;24.47;13.97;;;;;;;;;;4752437;30;20900;-73
2022/05/05 07:21:04;;;;;;;21.60;14.20;;;;;;;;;;4752154;30;20431;-74
2022/05/05 07:23:31;;;;;;;23.93;13.63;;;;;;;;;;4762964;29;20436;-74
2022/05/05 07:25:57;;;;;;;21.47;13.50;;;;;;;;;;4904770;29;20436;-74
2022/05/05 07:28:23;;;;;;;22.23;13.70;;;;;;;;;;4916638;29;20405;-74
2022/05/05 07:30:50;;;;;;;27.10;13.83;;;;;;;;;;4972370;28;20431;-72
2022/05/05 07:33:17;;;;;;;20.90;12.63;;;;;;;;;;4973893;28;20494;-74
2022/05/05 07:35:44;;;;;;;22.07;14.50;;;;;;;;;;4957068;28;20992;-73
2022/05/05 07:38:10;;;;;;;21.50;13.70;;;;;;;;;;4974629;28;20386;-72
2022/05/05 07:40:37;;;;;;;24.27;14.00;;;;;;;;;;4974293;28;20393;-72
2022/05/05 07:43:03;;;;;;;35.53;16.37;;;;;;;;;;4974086;28;20478;-73
2022/05/05 07:45:29;;;;;;;26.90;15.20;;;;;;;;;;4974042;28;21134;-73
2022/05/05 07:48:00;;;;;;;20.63;14.37;;;;;;;;;;4973991;28;20432;-73
2022/05/05 07:50:26;;;;;;;21.80;13.13;;;;;;;;;;4974590;28;20400;-74
2022/05/05 07:52:51;;;;;;;20.70;11.77;;;;;;;;;;4940366;28;20401;-74
2022/05/05 07:55:17;;;;;;;24.87;14.03;;;;;;;;;;4974245;28;20489;-73
2022/05/05 07:57:44;;;;;;;19.03;11.50;;;;;;;;;;4973930;28;20471;-74
2022/05/05 08:00:11;;;;;;;16.53;10.77;;;;;;;;;;4974183;28;20446;-73
2022/05/05 08:02:37;;;;;;;23.13;11.43;;;;;;;;;;4974248;28;20391;-73
2022/05/05 08:05:05;;;;;;;15.93;11.70;;;;;;;;;;4973634;28;20493;-73
2022/05/05 08:07:31;;;;;;;20.37;10.80;;;;;;;;;;4974078;28;20880;-73
2022/05/05 08:09:57;;;;;;;13.83;10.63;;;;;;;;;;4973524;28;20758;-73
2022/05/05 08:12:23;;;;;;;15.80;11.63;;;;;;;;;;4973587;28;20399;-73
2022/05/05 08:14:49;;;;;;;19.30;10.80;;;;;;;;;;4973478;28;21012;-73
2022/05/05 08:17:14;;;;;;;20.63;12.03;;;;;;;;;;4955908;28;20415;-73
2022/05/05 08:19:41;;;;;;;19.30;11.60;;;;;;;;;;4973190;28;20486;-73
2022/05/05 08:22:07;;;;;;;18.90;11.13;;;;;;;;;;4973895;28;20419;-74
2022/05/05 08:30:03;;;;;;;27.97;9.87;;;;;;;;;;5007179;28;20808;-74
2022/05/05 08:32:29;;;;;;;15.40;10.53;;;;;;;;;;4993366;28;20897;-75
2022/05/05 08:34:56;;;;;;;18.43;9.90;;;;;;;;;;4992857;28;20438;-73
2022/05/05 08:37:22;;;;;;;19.90;10.90;;;;;;;;;;4993226;28;20461;-73
2022/05/05 08:39:48;;;;;;;17.93;10.20;;;;;;;;;;4993263;28;20403;-74
2022/05/05 08:42:14;;;;;;;18.00;10.60;;;;;;;;;;4975996;28;20524;-73
2022/05/05 08:44:40;;;;;;;15.80;10.20;;;;;;;;;;4992950;28;20477;-75
2022/05/05 08:47:10;;;;;;;18.10;9.57;;;;;;;;;;4993616;28;20816;-74
2022/05/05 08:49:39;;;;;;;18.37;9.57;;;;;;;;;;4993358;28;20489;-74
2022/05/05 08:52:08;;;;;;;14.50;9.53;;;;;;;;;;4995459;28;20407;-74
2022/05/05 08:54:35;;;;;;;17.23;8.90;;;;;;;;;;4996344;28;20481;-73
2022/05/05 08:57:01;;;;;;;12.97;9.23;;;;;;;;;;4996756;28;20510;-74
2022/05/05 08:59:28;;;;;;;15.70;9.83;;;;;;;;;;4979448;28;20423;-74
2022/05/05 09:01:54;;;;;;;14.90;9.10;;;;;;;;;;4979110;28;20473;-74
2022/05/05 09:04:20;;;;;;;16.57;10.70;;;;;;;;;;4996165;28;20467;-75
2022/05/05 09:06:51;;;;;;;16.67;9.90;;;;;;;;;;4996705;28;20407;-73
2022/05/05 09:09:36;;;;;;;22.27;9.97;;;;;;;;;;4979036;28;20939;-74
2022/05/05 09:12:12;;;;;;;12.93;9.80;;;;;;;;;;4996243;28;20407;-74
2022/05/05 09:14:38;;;;;;;15.30;9.13;;;;;;;;;;4995904;28;20427;-75
2022/05/05 09:17:05;;;;;;;12.47;8.90;;;;;;;;;;5001674;28;20421;-73
2022/05/05 09:19:35;;;;;;;23.10;9.10;;;;;;;;;;4995619;28;20430;-74
2022/05/05 09:22:02;;;;;;;13.70;10.13;;;;;;;;;;5015807;28;20414;-72
2022/05/05 09:24:41;;;;;;;28.10;10.67;;;;;;;;;;5025324;28;20485;-73
2022/05/05 09:27:16;;;;;;;22.03;11.20;;;;;;;;;;5029321;28;20436;-75
2022/05/05 09:29:42;;;;;;;16.20;11.03;;;;;;;;;;5055625;28;20415;-75
2022/05/05 09:32:12;;;;;;;16.70;11.90;;;;;;;;;;5075465;28;20438;-75
2022/05/05 09:34:39;;;;;;;18.03;11.03;;;;;;;;;;5074939;28;20430;-74
2022/05/05 09:37:18;;;;;;;15.70;9.67;;;;;;;;;;5057668;28;20419;-74
2022/05/05 09:39:44;;;;;;;14.33;10.10;;;;;;;;;;5075231;28;20415;-74
2022/05/05 09:42:10;;;;;;;20.93;11.90;;;;;;;;;;5075269;28;20423;-75
2022/05/05 09:44:45;;;;;;;19.33;12.27;;;;;;;;;;5074710;28;20811;-74
2022/05/05 09:47:17;;;;;;;16.90;10.77;;;;;;;;;;5075232;28;20411;-75
2022/05/05 09:49:57;;;;;;;25.30;11.33;;;;;;;;;;5075087;28;20491;-74
2022/05/05 09:57:55;;;;;;;24.90;12.87;;;;;;;;;;5075464;28;20430;-74
2022/05/05 10:00:43;;;;;;;20.20;12.10;;;;;;;;;;5074825;28;20517;-77
2022/05/05 10:05:57;;;;;;;16.80;12.67;;;;;;;;;;5074954;28;20863;-73
2022/05/05 10:08:45;;;;;;;18.20;12.03;;;;;;;;;;5074821;28;20407;-74
2022/05/05 10:11:14;;;;;;;19.13;11.47;;;;;;;;;;5074852;28;20418;-72
2022/05/05 10:13:40;;;;;;;16.60;12.47;;;;;;;;;;5074228;28;20520;-74
2022/05/05 10:16:06;;;;;;;20.87;13.80;;;;;;;;;;5074538;28;20452;-73
2022/05/05 10:18:35;;;;;;;20.60;13.50;;;;;;;;;;5074318;28;20415;-73
2022/05/05 10:21:03;;;;;;;18.60;12.70;;;;;;;;;;5056322;28;20436;-74
2022/05/05 10:24:03;;;;;;;23.23;13.90;;;;;;;;;;5073973;28;20456;-73
2022/05/05 10:26:29;;;;;;;17.60;13.47;;;;;;;;;;5022443;28;20443;-73
2022/05/05 10:28:55;;;;;;;19.37;13.53;;;;;;;;;;5054109;28;20429;-73
2022/05/05 10:31:30;;;;;;;23.57;13.27;;;;;;;;;;5054206;28;20405;-73
2022/05/05 10:34:14;;;;;;;20.17;12.37;;;;;;;;;;5053854;28;20947;-74
2022/05/05 10:36:40;;;;;;;20.07;12.57;;;;;;;;;;5054008;28;20743;-74
2022/05/05 10:39:19;;;;;;;16.83;11.90;;;;;;;;;;5052766;28;20425;-74
2022/05/05 10:41:45;;;;;;;22.00;12.90;;;;;;;;;;5036389;28;20465;-74
2022/05/05 10:44:21;;;;;;;18.40;13.07;;;;;;;;;;5053758;28;20759;-73
2022/05/05 10:47:03;;;;;;;21.60;13.80;;;;;;;;;;5054126;28;20902;-73
2022/05/05 10:52:10;;;;;;;13.70;12.20;;;;;;;;;;5053898;28;20792;-74
2022/05/05 10:54:36;;;;;;;20.90;12.97;;;;;;;;;;5052163;28;20450;-74
2022/05/05 10:57:21;;;;;;;15.30;12.47;;;;;;;;;;5053838;28;20598;-74
2022/05/05 11:00:07;;;;;;;12.00;9.87;;;;;;;;;;5053611;28;20945;-73
2022/05/05 11:02:33;;;;;;;18.80;13.13;;;;;;;;;;5053488;28;20415;-73
2022/05/05 11:05:18;;;;;;;15.23;12.00;;;;;;;;;;5052903;28;20470;-74
2022/05/05 11:07:44;;;;;;;16.43;11.87;;;;;;;;;;5053541;28;20478;-73
2022/05/05 11:10:30;;;;;;;19.60;11.93;;;;;;;;;;5035831;28;20887;-73
2022/05/05 11:12:56;;;;;;;14.47;11.80;;;;;;;;;;5051688;28;20933;-73
2022/05/05 11:21:52;;;;;;;18.73;12.17;;;;;;;;;;5053670;28;20972;-73
2022/05/05 11:24:01;;;;;;;14.13;12.37;;;;;;;;;;5044612;28;20436;-74
2022/05/05 11:26:27;;;;;;;13.07;10.37;;;;;;;;;;5015438;28;20435;-73
2022/05/05 11:28:54;;;;;;;16.70;13.97;;;;;;;;;;4999758;28;20432;-74
2022/05/05 11:31:20;;;;;;;14.90;12.00;;;;;;;;;;5048635;28;20417;-74
2022/05/05 11:33:53;;;;;;;13.23;9.97;;;;;;;;;;5048196;28;20856;-73
2022/05/05 11:36:19;;;;;;;14.90;11.47;;;;;;;;;;5048788;28;20426;-74
2022/05/05 11:38:46;;;;;;;12.90;10.10;;;;;;;;;;5033563;28;20458;-73
2022/05/05 11:41:12;;;;;;;11.57;10.37;;;;;;;;;;5033089;28;20917;-74
2022/05/05 11:46:25;;;;;;;14.63;8.80;;;;;;;;;;5033142;28;20518;-73
2022/05/05 11:48:53;;;;;;;13.00;9.60;;;;;;;;;;5033489;28;20489;-74
2022/05/05 11:51:26;;;;;;;12.33;9.00;;;;;;;;;;5033278;28;20806;-73
2022/05/05 11:54:01;;;;;;;12.40;9.70;;;;;;;;;;5032666;28;20422;-74
2022/05/05 11:56:28;;;;;;;11.03;8.80;;;;;;;;;;5033070;28;20404;-75
2022/05/05 12:01:41;;;;;;;13.07;8.73;;;;;;;;;;5033128;28;20467;-75
2022/05/05 12:04:08;;;;;;;11.93;9.43;;;;;;;;;;5031220;28;20486;-75
2022/05/05 12:06:35;;;;;;;14.20;10.87;;;;;;;;;;5032665;28;20406;-74
2022/05/05 12:09:00;;;;;;;21.00;10.13;;;;;;;;;;5047998;28;20467;-74
2022/05/05 12:11:30;;;;;;;12.80;9.03;;;;;;;;;;5032559;28;20886;-74
2022/05/05 12:14:05;;;;;;;15.33;11.00;;;;;;;;;;5032174;28;20967;-74
2022/05/05 12:16:32;;;;;;;14.13;10.90;;;;;;;;;;5032559;28;20776;-74
2022/05/05 12:18:58;;;;;;;16.20;10.53;;;;;;;;;;5032497;28;20409;-74
2022/05/05 12:21:25;;;;;;;14.40;9.73;;;;;;;;;;5032451;28;20507;-75
2022/05/05 12:24:00;;;;;;;12.07;10.10;;;;;;;;;;5031969;28;20437;-74
2022/05/05 12:26:35;;;;;;;13.63;10.40;;;;;;;;;;5033858;28;20433;-73
2022/05/05 12:29:01;;;;;;;13.60;10.10;;;;;;;;;;5036384;28;20474;-74
2022/05/05 12:31:30;;;;;;;12.87;10.60;;;;;;;;;;5036227;28;20512;-75
2022/05/05 12:33:57;;;;;;;11.63;9.10;;;;;;;;;;5018206;28;20558;-74
2022/05/05 12:36:28;;;;;;;13.13;10.60;;;;;;;;;;5002403;28;20421;-75
2022/05/05 12:39:09;;;;;;;15.30;10.80;;;;;;;;;;5018610;28;20429;-74
2022/05/05 12:41:35;;;;;;;15.33;11.43;;;;;;;;;;5018482;28;20432;-74
2022/05/05 12:44:08;;;;;;;13.90;9.77;;;;;;;;;;5018008;28;20455;-75
2022/05/05 12:46:35;;;;;;;15.50;10.40;;;;;;;;;;5034769;28;20417;-73
2022/05/05 12:49:01;;;;;;;14.20;11.27;;;;;;;;;;5018327;28;20463;-75
2022/05/05 12:51:32;;;;;;;16.10;11.00;;;;;;;;;;5036267;28;20405;-74
2022/05/05 12:59:36;;;;;;;15.63;10.67;;;;;;;;;;5036232;28;20426;-73
2022/05/05 13:02:02;;;;;;;14.67;10.57;;;;;;;;;;5035748;28;20781;-73
2022/05/05 13:04:28;;;;;;;14.87;10.87;;;;;;;;;;5035287;28;20599;-74
2022/05/05 13:06:54;;;;;;;14.30;11.00;;;;;;;;;;5035825;28;20417;-77
2022/05/05 13:09:20;;;;;;;15.60;10.77;;;;;;;;;;5035622;28;20409;-75
2022/05/05 13:11:47;;;;;;;14.20;9.30;;;;;;;;;;5035473;28;20509;-75
2022/05/05 13:14:13;;;;;;;15.70;9.57;;;;;;;;;;5035204;28;20801;-75
2022/05/05 13:16:40;;;;;;;13.00;9.37;;;;;;;;;;5034352;28;20429;-73
2022/05/05 13:19:06;;;;;;;13.83;9.70;;;;;;;;;;5035548;28;20413;-74
2022/05/05 13:21:36;;;;;;;12.90;9.03;;;;;;;;;;5035527;28;20417;-75
2022/05/05 13:24:02;;;;;;;12.17;10.17;;;;;;;;;;5034743;28;20433;-75
2022/05/05 13:26:28;;;;;;;14.47;12.30;;;;;;;;;;5035432;28;20563;-75
2022/05/05 13:28:55;;;;;;;11.80;10.60;;;;;;;;;;5035197;28;20437;-75
2022/05/05 13:31:21;;;;;;;14.17;10.50;;;;;;;;;;5035222;28;20445;-75
2022/05/05 13:33:48;;;;;;;15.70;12.03;;;;;;;;;;5034803;28;20530;-76
2022/05/05 13:36:14;;;;;;;16.23;10.90;;;;;;;;;;5034874;28;20409;-75
2022/05/05 13:38:40;;;;;;;11.93;10.57;;;;;;;;;;5034827;28;20824;-75
2022/05/05 13:41:06;;;;;;;13.70;10.60;;;;;;;;;;5035077;28;20464;-75
2022/05/05 13:43:32;;;;;;;14.90;9.50;;;;;;;;;;5017073;28;20448;-74
2022/05/05 13:45:58;;;;;;;15.97;10.70;;;;;;;;;;5035053;28;20465;-75
2022/05/05 13:48:24;;;;;;;12.50;9.20;;;;;;;;;;5034952;28;20388;-75
2022/05/05 13:50:50;;;;;;;13.70;8.73;;;;;;;;;;5034712;28;20413;-75
2022/05/05 13:53:16;;;;;;;13.13;9.70;;;;;;;;;;5034556;28;20409;-75
2022/05/05 13:55:42;;;;;;;13.60;10.30;;;;;;;;;;5038045;28;20470;-75
2022/05/05 13:58:08;;;;;;;13.27;9.60;;;;;;;;;;5054473;28;20452;-75
2022/05/05 14:00:34;;;;;;;16.43;9.10;;;;;;;;;;5054488;28;20424;-75
2022/05/05 14:03:01;;;;;;;11.30;8.70;;;;;;;;;;5036803;28;20417;-75
2022/05/05 14:05:27;;;;;;;14.27;9.17;;;;;;;;;;5054589;28;20499;-75
2022/05/05 14:13:23;;;;;;;9.60;8.03;;;;;;;;;;5054275;28;20466;-75
2022/05/05 14:15:49;;;;;;;15.63;8.87;;;;;;;;;;5054425;28;20412;-75
2022/05/05 14:18:18;;;;;;;8.40;7.50;;;;;;;;;;5054553;28;20419;-76
2022/05/05 14:20:45;;;;;;;14.40;9.07;;;;;;;;;;5054341;28;20474;-75
2022/05/05 14:23:11;;;;;;;9.00;7.70;;;;;;;;;;5053925;28;20417;-76
2022/05/05 14:25:37;;;;;;;10.30;8.00;;;;;;;;;;5036404;28;20483;-75
2022/05/05 14:28:03;;;;;;;14.37;7.77;;;;;;;;;;5054229;28;20495;-75
2022/05/05 14:30:29;;;;;;;9.53;6.83;;;;;;;;;;5053943;28;20428;-76
2022/05/05 14:32:55;;;;;;;10.03;7.37;;;;;;;;;;5053813;28;20439;-76
2022/05/05 14:35:21;;;;;;;9.20;6.23;;;;;;;;;;5053995;28;20474;-75
2022/05/05 14:37:47;;;;;;;8.40;6.97;;;;;;;;;;5036528;28;20417;-75
2022/05/05 14:40:14;;;;;;;10.37;7.50;;;;;;;;;;5053785;28;20471;-75
2022/05/05 14:42:40;;;;;;;11.03;6.60;;;;;;;;;;5053925;28;21015;-75
2022/05/05 14:45:06;;;;;;;7.87;7.07;;;;;;;;;;5053301;28;20470;-75
2022/05/05 14:47:32;;;;;;;8.40;6.63;;;;;;;;;;5053830;28;20413;-75
2022/05/05 14:49:59;;;;;;;16.93;6.87;;;;;;;;;;5035322;28;20744;-76
2022/05/05 14:52:25;;;;;;;9.00;6.20;;;;;;;;;;5053636;28;20399;-76
2022/05/05 14:54:51;;;;;;;5.87;5.30;;;;;;;;;;5052606;28;20952;-75
2022/05/05 14:57:20;;;;;;;6.83;5.10;;;;;;;;;;5053138;28;20418;-76
2022/05/05 14:59:49;;;;;;;7.47;5.20;;;;;;;;;;5053189;28;20421;-75
2022/05/05 15:02:15;;;;;;;4.90;4.33;;;;;;;;;;5052657;28;20418;-75
2022/05/05 15:04:42;;;;;;;6.60;4.60;;;;;;;;;;5052591;28;20457;-75
2022/05/05 15:07:08;;;;;;;5.87;4.30;;;;;;;;;;5051718;28;20467;-75
2022/05/05 15:09:34;;;;;;;4.80;3.70;;;;;;;;;;5051913;28;20863;-75
2022/05/05 15:12:00;;;;;;;4.40;3.30;;;;;;;;;;5052438;28;20438;-75
2022/05/05 15:14:26;;;;;;;2.60;2.30;;;;;;;;;;5052098;28;20791;-77
2022/05/05 15:16:53;;;;;;;6.00;4.13;;;;;;;;;;5052730;28;20415;-77
2022/05/05 15:19:19;;;;;;;6.90;4.93;;;;;;;;;;5033218;28;20771;-77
2022/05/05 15:21:46;;;;;;;5.87;5.20;;;;;;;;;;5032899;28;20458;-77
2022/05/05 15:24:12;;;;;;;8.40;6.17;;;;;;;;;;5048011;28;20448;-76
2022/05/05 15:26:38;;;;;;;6.90;5.97;;;;;;;;;;5052349;28;20983;-77
2022/05/05 15:29:04;;;;;;;8.30;5.80;;;;;;;;;;5052135;28;20447;-76
2022/05/05 15:31:30;;;;;;;10.27;6.50;;;;;;;;;;5052585;28;20417;-76
2022/05/05 15:33:56;;;;;;;7.03;5.63;;;;;;;;;;5051825;28;20820;-76
2022/05/05 15:36:22;;;;;;;8.17;5.37;;;;;;;;;;5052384;28;20413;-76
2022/05/05 15:38:52;;;;;;;8.97;6.30;;;;;;;;;;5052267;28;20469;-76
2022/05/05 15:41:18;;;;;;;8.37;5.97;;;;;;;;;;5049520;28;20918;-76
2022/05/05 15:43:44;;;;;;;9.50;6.27;;;;;;;;;;5051838;28;20444;-76
2022/05/05 15:46:10;;;;;;;6.37;5.03;;;;;;;;;;5052235;28;20471;-76
2022/05/05 15:48:37;;;;;;;5.07;4.57;;;;;;;;;;5052515;28;20397;-76
2022/05/05 15:51:03;;;;;;;7.03;5.40;;;;;;;;;;5052341;28;20790;-76
2022/05/05 15:53:29;;;;;;;8.53;6.50;;;;;;;;;;5051622;28;20436;-76
2022/05/05 15:55:56;;;;;;;7.20;5.50;;;;;;;;;;5052204;28;20427;-76
2022/05/05 15:58:22;;;;;;;11.63;6.10;;;;;;;;;;5052160;28;20415;-77
2022/05/05 16:00:48;;;;;;;8.80;6.30;;;;;;;;;;5051853;28;20775;-76
2022/05/05 16:03:18;;;;;;;8.20;6.67;;;;;;;;;;5051269;28;20423;-77
2022/05/05 16:05:44;;;;;;;7.30;6.43;;;;;;;;;;5051774;28;20460;-76
2022/05/05 16:08:09;;;;;;;11.87;5.53;;;;;;;;;;5051195;28;20459;-76
2022/05/05 16:10:36;;;;;;;6.83;6.13;;;;;;;;;;5050368;28;20405;-76
2022/05/05 16:13:03;;;;;;;8.77;6.27;;;;;;;;;;5050082;28;20409;-76
2022/05/05 16:15:29;;;;;;;7.70;5.90;;;;;;;;;;5050656;28;20432;-78
2022/05/05 16:17:55;;;;;;;10.07;6.80;;;;;;;;;;5034223;28;20413;-79
2022/05/05 16:20:21;;;;;;;9.23;7.10;;;;;;;;;;5052247;28;20501;-78
2022/05/05 16:22:48;;;;;;;13.73;7.43;;;;;;;;;;5051920;28;20413;-78
2022/05/05 16:30:47;;;;;;;9.20;7.00;;;;;;;;;;5049584;28;20472;-78
2022/05/05 16:33:14;;;;;;;8.70;7.50;;;;;;;;;;5051115;28;20415;-79
2022/05/05 16:35:40;;;;;;;8.93;7.67;;;;;;;;;;5033975;28;20455;-77
2022/05/05 16:38:06;;;;;;;9.37;8.03;;;;;;;;;;5031091;28;20917;-78
2022/05/05 16:40:34;;;;;;;8.23;7.33;;;;;;;;;;5051899;28;20397;-78
2022/05/05 16:43:00;;;;;;;7.67;6.77;;;;;;;;;;5049086;28;20412;-76
2022/05/05 16:45:27;;;;;;;9.57;7.23;;;;;;;;;;5048809;28;20479;-77
2022/05/05 16:47:53;;;;;;;10.40;6.37;;;;;;;;;;5051922;28;20419;-77
2022/05/05 16:50:20;;;;;;;9.53;5.80;;;;;;;;;;5049700;28;20440;-78
2022/05/05 16:52:46;;;;;;;9.50;6.40;;;;;;;;;;5053801;28;20506;-78
2022/05/05 16:55:18;;;;;;;8.47;6.40;;;;;;;;;;5052068;28;20766;-76
2022/05/05 16:57:45;;;;;;;6.33;5.73;;;;;;;;;;5052190;28;20428;-77
2022/05/05 17:00:12;;;;;;;10.00;6.30;;;;;;;;;;5052502;28;20416;-77
2022/05/05 17:02:39;;;;;;;9.60;5.80;;;;;;;;;;5051145;28;20848;-77
2022/05/05 17:05:05;;;;;;;8.10;6.20;;;;;;;;;;5051011;28;20464;-77
2022/05/05 17:07:31;;;;;;;6.17;5.57;;;;;;;;;;5052195;28;20459;-76
2022/05/05 17:09:57;;;;;;;7.40;5.17;;;;;;;;;;5052251;28;20409;-76
2022/05/05 17:12:23;;;;;;;8.47;6.33;;;;;;;;;;5053405;28;20491;-76
2022/05/05 17:14:50;;;;;;;9.27;5.33;;;;;;;;;;5053089;28;20477;-76
2022/05/05 17:17:17;;;;;;;7.30;5.93;;;;;;;;;;5035926;28;20426;-76
2022/05/05 17:19:43;;;;;;;7.73;5.50;;;;;;;;;;5034393;28;20929;-76
2022/05/05 17:22:11;;;;;;;11.30;5.90;;;;;;;;;;5034716;28;20424;-76
2022/05/05 17:24:37;;;;;;;5.77;5.10;;;;;;;;;;5035114;28;20475;-76
2022/05/05 17:27:03;;;;;;;10.07;5.50;;;;;;;;;;5055664;28;20747;-76
2022/05/05 17:29:29;;;;;;;6.27;4.93;;;;;;;;;;5055530;28;20987;-76
2022/05/05 17:31:55;;;;;;;7.33;5.90;;;;;;;;;;5055672;28;20453;-76
2022/05/05 17:34:21;;;;;;;9.37;5.73;;;;;;;;;;5053989;28;20443;-76
2022/05/05 17:36:47;;;;;;;8.93;6.60;;;;;;;;;;5055619;28;20500;-76
2022/05/05 17:39:13;;;;;;;12.13;6.50;;;;;;;;;;5037941;28;20443;-76
2022/05/05 17:41:39;;;;;;;10.57;6.43;;;;;;;;;;5054025;28;21153;-76
2022/05/05 17:44:05;;;;;;;8.23;5.77;;;;;;;;;;5037143;28;20448;-77
2022/05/05 17:51:45;;;;;;;8.70;5.90;;;;;;;;;;5055489;28;20440;-78
2022/05/05 17:54:11;;;;;;;9.03;6.90;;;;;;;;;;5054873;28;20436;-77
2022/05/05 17:56:37;;;;;;;8.83;6.07;;;;;;;;;;5050224;28;20422;-77
2022/05/05 17:59:03;;;;;;;10.27;6.30;;;;;;;;;;5035265;28;20482;-75
2022/05/05 18:01:30;;;;;;;8.47;6.30;;;;;;;;;;5035016;28;20421;-76
2022/05/05 18:03:56;;;;;;;7.40;6.40;;;;;;;;;;5040045;28;20443;-75
2022/05/05 18:06:24;;;;;;;7.50;6.20;;;;;;;;;;5073121;28;20494;-77
2022/05/05 18:08:51;;;;;;;8.00;5.03;;;;;;;;;;5071287;28;20799;-74
2022/05/05 18:11:17;;;;;;;9.73;5.17;;;;;;;;;;5054493;28;20421;-76
2022/05/05 18:13:43;;;;;;;7.20;5.40;;;;;;;;;;5054120;28;20440;-75
2022/05/05 18:16:09;;;;;;;9.80;4.60;;;;;;;;;;5054340;28;20391;-77
2022/05/05 18:18:36;;;;;;;7.00;4.33;;;;;;;;;;5054557;28;20412;-75
2022/05/05 18:21:06;;;;;;;11.83;6.10;;;;;;;;;;5054789;28;20405;-76
2022/05/05 18:23:33;;;;;;;8.90;5.10;;;;;;;;;;5054149;28;20458;-77
2022/05/05 18:25:59;;;;;;;7.43;5.07;;;;;;;;;;5042978;28;20514;-76
2022/05/05 18:28:25;;;;;;;6.40;4.90;;;;;;;;;;5032852;28;20414;-78
2022/05/05 18:30:51;;;;;;;9.00;5.43;;;;;;;;;;5034540;28;20413;-76
2022/05/05 18:33:18;;;;;;;8.97;5.00;;;;;;;;;;5033865;28;20432;-77
2022/05/05 18:35:47;;;;;;;11.50;4.93;;;;;;;;;;5034545;28;20409;-76
2022/05/05 18:38:14;;;;;;;6.53;4.70;;;;;;;;;;5032427;28;20409;-75
2022/05/05 18:40:40;;;;;;;5.37;4.87;;;;;;;;;;5032772;28;20922;-77
2022/05/05 18:43:06;;;;;;;7.23;4.50;;;;;;;;;;5033644;28;20904;-76
2022/05/05 18:45:33;;;;;;;8.57;4.77;;;;;;;;;;5033281;28;20555;-77
2022/05/05 18:47:59;;;;;;;10.43;4.90;;;;;;;;;;5032808;28;20501;-77
2022/05/05 18:50:25;;;;;;;5.70;4.30;;;;;;;;;;5033673;28;20895;-77
2022/05/05 18:52:51;;;;;;;6.03;4.00;;;;;;;;;;5033679;28;20456;-76
2022/05/05 18:55:17;;;;;;;4.73;3.37;;;;;;;;;;5041608;28;20443;-78
2022/05/05 18:57:44;;;;;;;5.57;3.50;;;;;;;;;;5046811;28;20488;-76
2022/05/05 19:00:10;;;;;;;4.53;4.13;;;;;;;;;;5044883;28;20881;-76
2022/05/05 19:02:40;;;;;;;5.27;3.93;;;;;;;;;;5049693;28;20456;-78
2022/05/05 19:05:07;;;;;;;6.33;4.60;;;;;;;;;;5032804;28;20495;-78
2022/05/05 19:07:33;;;;;;;5.90;5.07;;;;;;;;;;5041951;28;20434;-75
2022/05/05 19:10:00;;;;;;;5.00;4.40;;;;;;;;;;5043729;28;20474;-76
2022/05/05 19:12:26;;;;;;;11.13;5.00;;;;;;;;;;5035330;28;20412;-76
2022/05/05 19:14:52;;;;;;;7.53;5.00;;;;;;;;;;5049641;28;20478;-76
2022/05/05 19:17:19;;;;;;;6.40;4.73;;;;;;;;;;5053085;28;20466;-77
2022/05/05 19:19:45;;;;;;;6.90;4.20;;;;;;;;;;5052829;28;20427;-75
2022/05/05 19:22:13;;;;;;;8.13;5.30;;;;;;;;;;5052859;28;20391;-75
2022/05/05 19:24:40;;;;;;;9.03;6.03;;;;;;;;;;5051699;28;20452;-76
2022/05/05 19:27:06;;;;;;;11.17;5.40;;;;;;;;;;5052505;28;20428;-77
2022/05/05 19:29:32;;;;;;;10.50;5.27;;;;;;;;;;5052558;28;20428;-75
2022/05/05 19:31:58;;;;;;;6.50;5.33;;;;;;;;;;5052762;28;20419;-77
2022/05/05 19:34:24;;;;;;;7.97;4.27;;;;;;;;;;5052021;28;20402;-77
2022/05/05 19:36:50;;;;;;;7.10;5.47;;;;;;;;;;5052328;28;20380;-75
2022/05/05 19:39:16;;;;;;;14.10;5.57;;;;;;;;;;5052578;28;20453;-75
2022/05/05 19:41:42;;;;;;;7.07;4.70;;;;;;;;;;5034945;28;20395;-76